Time;durP1;ratioP1;P1;durP2;ratioP2;P2;SDS_P1;SDS_P2;PMS_P1;PMS_P2;Temp;Humidity;BMP_temperature;BMP_pressure;BME280_temperature;BME280_humidity;BME280_pressure;Samples;Min_cycle;Max_cycle;Signal;HPM_P1;HPM_P2
2023/05/06 00:01:43;;;;;;;8.25;6.43;;;;;;;11.96;72.11;99729.78;5115272;28;20081;-89
2023/05/06 00:04:08;;;;;;;12.95;6.47;;;;;;;11.82;72.46;99742.66;5115073;28;20026;-88
2023/05/06 00:06:34;;;;;;;12.23;6.53;;;;;;;11.83;72.48;99750.44;5096717;28;20030;-89
2023/05/06 00:08:59;;;;;;;12.02;6.53;;;;;;;11.67;72.64;99706.00;5096836;28;20387;-88
2023/05/06 00:11:26;;;;;;;10.15;6.90;;;;;;;11.86;72.84;99739.03;5096730;28;20019;-88
2023/05/06 00:13:51;;;;;;;10.23;6.35;;;;;;;11.78;73.15;99731.53;5115469;28;20055;-88
2023/05/06 00:16:16;;;;;;;8.10;6.20;;;;;;;11.19;73.05;99641.47;5096935;28;20029;-89
2023/05/06 00:18:42;;;;;;;10.52;7.00;;;;;;;11.63;72.91;99706.22;5115177;28;20081;-89
2023/05/06 00:21:07;;;;;;;12.43;6.65;;;;;;;11.52;73.20;99687.66;5096756;28;20490;-89
2023/05/06 00:23:32;;;;;;;8.00;6.97;;;;;;;11.77;73.09;99747.28;5096389;28;20024;-89
2023/05/06 00:25:58;;;;;;;11.73;7.18;;;;;;;11.58;73.05;99726.47;5114615;28;20043;-88
2023/05/06 00:28:23;;;;;;;9.93;6.60;;;;;;;11.78;73.03;99735.91;5096552;28;20024;-89
2023/05/06 00:30:48;;;;;;;12.05;6.88;;;;;;;11.62;73.32;99731.44;5096435;28;20027;-88
2023/05/06 00:33:14;;;;;;;9.60;6.38;;;;;;;11.53;73.21;99699.78;5096391;28;20047;-88
2023/05/06 00:35:39;;;;;;;14.63;6.97;;;;;;;11.71;73.14;99732.75;5096209;28;20548;-89
2023/05/06 00:38:14;;;;;;;8.77;6.35;;;;;;;11.67;72.99;99708.63;5096267;28;20031;-89
2023/05/06 00:40:40;;;;;;;8.50;6.97;;;;;;;11.69;73.09;99718.97;5114263;28;20467;-89
2023/05/06 00:43:05;;;;;;;11.38;6.65;;;;;;;11.69;72.89;99725.03;5070651;28;20047;-89
2023/05/06 00:45:31;;;;;;;11.57;6.65;;;;;;;11.62;72.98;99717.56;5054500;28;20033;-89
2023/05/06 00:47:57;;;;;;;11.55;6.47;;;;;;;11.78;72.75;99715.03;5071510;28;20037;-88
2023/05/06 00:50:24;;;;;;;11.90;6.78;;;;;;;11.79;72.69;99717.56;5054415;28;20044;-88
2023/05/06 00:52:50;;;;;;;11.35;7.07;;;;;;;11.85;72.76;99708.63;5053950;28;20135;-88
2023/05/06 00:55:16;;;;;;;10.98;6.63;;;;;;;11.77;72.83;99700.31;5071241;28;20123;-88
2023/05/06 00:57:42;;;;;;;10.68;6.63;;;;;;;11.74;72.65;99699.53;5070933;28;20032;-89
2023/05/06 01:00:07;;;;;;;10.15;6.45;;;;;;;11.85;72.88;99714.69;5071124;28;20044;-89
2023/05/06 01:02:33;;;;;;;10.27;6.78;;;;;;;11.74;72.91;99720.41;5070629;28;20111;-89
2023/05/06 01:04:59;;;;;;;12.32;6.63;;;;;;;11.74;73.04;99709.13;5070969;28;20033;-88
2023/05/06 01:07:39;;;;;;;10.52;7.53;;;;;;;11.59;72.95;99684.69;5053998;28;20415;-88
2023/05/06 01:10:34;;;;;;;9.88;6.85;;;;;;;11.72;73.23;99718.81;5070940;28;20166;-89
2023/05/06 01:13:29;;;;;;;9.23;6.47;;;;;;;11.72;73.27;99714.44;5056456;28;20055;-89
2023/05/06 01:15:57;;;;;;;9.77;6.63;;;;;;;11.65;72.95;99683.50;5113628;28;20031;-89
2023/05/06 01:18:26;;;;;;;10.55;6.55;;;;;;;11.62;73.08;99673.22;5095751;28;20110;-88
2023/05/06 01:20:53;;;;;;;9.65;6.22;;;;;;;11.69;73.17;99687.66;5095331;28;20030;-88
2023/05/06 01:23:18;;;;;;;10.63;6.53;;;;;;;11.73;73.16;99715.28;5095593;28;20035;-88
2023/05/06 01:25:44;;;;;;;14.05;6.75;;;;;;;11.71;73.31;99691.88;5113467;28;20035;-88
2023/05/06 01:28:11;;;;;;;13.82;6.38;;;;;;;11.32;73.67;99681.66;5095452;28;20020;-88
2023/05/06 01:30:52;;;;;;;10.38;6.07;;;;;;;11.46;74.29;99709.66;5050072;28;20519;-88
2023/05/06 01:33:38;;;;;;;13.23;6.45;;;;;;;11.51;73.94;99706.84;5050272;28;20080;-89
2023/05/06 01:36:11;;;;;;;10.07;6.50;;;;;;;11.66;73.76;99713.88;5033665;28;20056;-88
2023/05/06 01:38:46;;;;;;;10.93;6.75;;;;;;;11.50;73.64;99672.06;5050101;28;20033;-89
2023/05/06 01:41:15;;;;;;;10.70;7.07;;;;;;;11.62;73.43;99675.81;5033608;28;20036;-89
2023/05/06 01:43:43;;;;;;;11.55;6.65;;;;;;;11.52;73.60;99672.84;5033181;28;20400;-89
2023/05/06 01:46:16;;;;;;;13.05;6.80;;;;;;;11.51;73.43;99683.38;5033571;28;20120;-89
2023/05/06 01:48:43;;;;;;;11.50;6.70;;;;;;;11.61;73.94;99708.06;5033071;28;20049;-89
2023/05/06 01:51:09;;;;;;;12.55;7.15;;;;;;;11.61;73.77;99697.63;5050419;28;20442;-88
2023/05/06 01:53:34;;;;;;;11.57;6.60;;;;;;;11.60;74.32;99691.56;5050445;28;20075;-89
2023/05/06 01:55:59;;;;;;;10.40;6.50;;;;;;;11.62;74.55;99701.91;5049193;28;20041;-89
2023/05/06 01:58:25;;;;;;;13.73;6.93;;;;;;;11.39;74.23;99672.63;5049864;28;20065;-88
2023/05/06 02:00:50;;;;;;;13.10;6.82;;;;;;;11.27;74.44;99659.34;5050018;28;20056;-89
2023/05/06 02:03:15;;;;;;;14.60;6.32;;;;;;;11.34;74.46;99658.97;5050327;28;20060;-89
2023/05/06 02:05:41;;;;;;;8.05;6.22;;;;;;;11.54;74.55;99684.03;5033017;28;20068;-89
2023/05/06 02:08:06;;;;;;;10.43;6.40;;;;;;;11.55;74.65;99696.19;5066013;28;20035;-89
2023/05/06 02:10:31;;;;;;;12.07;6.78;;;;;;;11.36;74.87;99662.31;5113071;28;20355;-89
2023/05/06 02:12:57;;;;;;;12.48;6.85;;;;;;;11.47;74.44;99677.47;5112815;28;20383;-89
2023/05/06 02:15:22;;;;;;;10.05;6.30;;;;;;;11.45;74.81;99676.66;5094634;28;20076;-88
2023/05/06 02:17:48;;;;;;;11.50;6.32;;;;;;;11.37;74.75;99677.03;5094485;28;20104;-89
2023/05/06 02:20:13;;;;;;;11.35;7.20;;;;;;;11.60;74.31;99693.34;5113052;28;20035;-89
2023/05/06 02:22:38;;;;;;;10.73;6.38;;;;;;;11.47;73.86;99673.09;5094042;28;20027;-89
2023/05/06 02:25:04;;;;;;;10.13;5.97;;;;;;;11.56;74.00;99690.03;5112949;28;20016;-89
2023/05/06 02:27:30;;;;;;;12.77;6.88;;;;;;;11.44;74.17;99672.38;5112724;28;20027;-88
2023/05/06 02:29:55;;;;;;;8.57;7.15;;;;;;;11.58;74.10;99684.72;5094293;28;20089;-89
2023/05/06 02:32:20;;;;;;;7.63;6.07;;;;;;;11.49;74.18;99680.81;5094019;28;20035;-89
2023/05/06 02:34:46;;;;;;;9.00;6.28;;;;;;;11.53;74.16;99684.13;5093839;28;20356;-88
2023/05/06 02:37:11;;;;;;;11.77;6.55;;;;;;;11.55;74.34;99690.13;5094167;28;20039;-88
2023/05/06 02:39:36;;;;;;;9.13;6.13;;;;;;;11.61;73.95;99688.03;5094437;28;20371;-89
2023/05/06 02:42:02;;;;;;;12.60;7.32;;;;;;;11.70;73.77;99689.34;5112461;28;20028;-89
2023/05/06 02:44:28;;;;;;;9.10;6.70;;;;;;;11.45;73.90;99651.44;5094135;28;20100;-89
2023/05/06 02:46:53;;;;;;;9.23;6.20;;;;;;;11.68;73.81;99709.44;5048993;28;20123;-89
2023/05/06 02:49:18;;;;;;;12.05;6.75;;;;;;;11.38;74.30;99660.50;5032666;28;20393;-89
2023/05/06 02:51:44;;;;;;;9.25;6.65;;;;;;;11.56;74.67;99695.25;5032315;28;20063;-89
2023/05/06 02:54:09;;;;;;;8.20;6.53;;;;;;;10.88;74.83;99601.28;5049341;28;20063;-89
2023/05/06 02:56:34;;;;;;;9.20;6.40;;;;;;;11.42;74.90;99682.06;5049114;28;20037;-89
2023/05/06 02:59:00;;;;;;;8.60;5.95;;;;;;;11.48;75.05;99702.63;5032356;28;20032;-89
2023/05/06 03:01:26;;;;;;;10.70;6.28;;;;;;;11.40;74.93;99697.75;5032496;28;20032;-89
2023/05/06 03:03:51;;;;;;;9.60;6.78;;;;;;;11.43;74.79;99689.81;5049006;28;20049;-88
2023/05/06 03:06:16;;;;;;;7.25;6.15;;;;;;;11.52;74.54;99698.09;5033020;28;20503;-89
2023/05/06 03:08:42;;;;;;;12.60;6.88;;;;;;;11.58;74.54;99721.25;5053045;28;20032;-88
2023/05/06 03:11:07;;;;;;;10.02;6.65;;;;;;;11.62;74.72;99734.06;5036440;28;20589;-89
2023/05/06 03:13:32;;;;;;;9.23;7.15;;;;;;;11.39;74.70;99684.81;5036483;28;20496;-89
2023/05/06 03:15:58;;;;;;;10.25;7.07;;;;;;;11.76;75.70;99758.66;5036226;28;20048;-89
2023/05/06 03:18:23;;;;;;;10.27;6.57;;;;;;;11.62;76.02;99747.09;5080279;28;20039;-89
2023/05/06 03:20:49;;;;;;;7.85;5.90;;;;;;;11.63;76.75;99742.72;5115823;28;20075;-89
2023/05/06 03:23:14;;;;;;;7.63;6.53;;;;;;;11.80;77.67;99760.16;5097941;28;20072;-89
2023/05/06 03:25:40;;;;;;;16.73;7.30;;;;;;;11.67;77.62;99750.34;5097579;28;20124;-89
2023/05/06 03:28:05;;;;;;;10.13;6.50;;;;;;;11.65;78.74;99746.97;5052712;28;20033;-89
2023/05/06 03:30:30;;;;;;;9.90;6.60;;;;;;;11.51;79.83;99738.97;5036153;28;20622;-89
2023/05/06 03:32:59;;;;;;;10.57;6.90;;;;;;;11.69;80.48;99771.16;5052370;28;20491;-89
2023/05/06 03:35:24;;;;;;;7.82;6.38;;;;;;;11.43;79.51;99723.69;5036058;28;20041;-89
2023/05/06 03:37:50;;;;;;;7.90;6.57;;;;;;;11.51;81.09;99753.78;5035709;28;20045;-89
2023/05/06 03:40:15;;;;;;;11.07;6.75;;;;;;;11.51;82.78;99757.25;5036021;28;20048;-89
2023/05/06 03:42:40;;;;;;;12.20;7.22;;;;;;;11.33;83.39;99758.09;5052499;28;20124;-89
2023/05/06 03:45:06;;;;;;;10.80;6.95;;;;;;;11.27;83.30;99743.63;5035736;28;20496;-89
2023/05/06 03:47:31;;;;;;;12.32;7.30;;;;;;;11.18;84.12;99746.66;5035751;28;20215;-89
2023/05/06 03:49:57;;;;;;;13.55;7.65;;;;;;;11.07;84.18;99726.31;5052151;28;20029;-89
2023/05/06 03:52:22;;;;;;;11.70;6.55;;;;;;;10.78;83.36;99716.41;5035744;28;20145;-89
2023/05/06 03:54:48;;;;;;;9.30;7.60;;;;;;;10.61;84.30;99704.16;5035644;28;20044;-89
2023/05/06 03:57:13;;;;;;;9.45;6.82;;;;;;;11.06;84.28;99749.84;5052501;28;20535;-89
2023/05/06 03:59:39;;;;;;;11.88;6.93;;;;;;;10.88;83.75;99725.50;5081088;28;20066;-89
2023/05/06 04:02:04;;;;;;;10.18;6.40;;;;;;;10.98;84.33;99740.63;5096813;28;20050;-89
2023/05/06 04:04:29;;;;;;;10.00;6.45;;;;;;;11.01;84.72;99742.25;5115135;28;20069;-89
2023/05/06 04:06:55;;;;;;;12.82;7.88;;;;;;;10.82;84.86;99730.97;5096970;28;20066;-89
2023/05/06 04:09:20;;;;;;;10.85;7.10;;;;;;;10.74;84.28;99728.72;5115444;28;20153;-89
2023/05/06 04:11:45;;;;;;;11.23;6.93;;;;;;;10.63;85.07;99725.78;5096869;28;20035;-89
2023/05/06 04:14:11;;;;;;;14.30;7.80;;;;;;;10.35;85.32;99684.50;5096927;28;20113;-89
2023/05/06 04:16:36;;;;;;;9.52;6.93;;;;;;;10.65;85.25;99730.00;5115071;28;20114;-89
2023/05/06 04:19:02;;;;;;;9.98;6.95;;;;;;;10.77;85.84;99736.41;5113946;28;20445;-88
2023/05/06 04:21:28;;;;;;;8.85;7.35;;;;;;;10.74;85.91;99729.59;5114955;28;20588;-90
2023/05/06 04:23:54;;;;;;;11.18;7.80;;;;;;;10.69;85.95;99725.50;5096489;28;20382;-89
2023/05/06 04:26:20;;;;;;;9.85;7.32;;;;;;;10.59;85.84;99719.03;5096661;28;20122;-89
2023/05/06 04:28:45;;;;;;;11.07;7.55;;;;;;;10.56;86.49;99706.13;5096434;28;20114;-89
2023/05/06 04:31:13;;;;;;;10.05;7.70;;;;;;;10.52;85.73;99715.84;5096557;28;20020;-90
2023/05/06 04:33:38;;;;;;;9.73;6.50;;;;;;;10.36;87.29;99676.63;5096106;28;20050;-89
2023/05/06 04:36:04;;;;;;;11.00;7.30;;;;;;;10.51;86.69;99697.69;5096369;28;20119;-89
2023/05/06 04:38:30;;;;;;;10.27;6.95;;;;;;;10.33;86.41;99678.53;5096479;28;20110;-90
2023/05/06 04:40:56;;;;;;;12.18;7.00;;;;;;;10.36;86.28;99675.78;5096091;28;20027;-89
2023/05/06 04:43:21;;;;;;;13.27;7.35;;;;;;;10.41;86.81;99692.91;5114581;28;20028;-89
2023/05/06 04:45:50;;;;;;;10.00;6.90;;;;;;;10.22;86.26;99650.34;5095959;28;20046;-90
2023/05/06 04:48:21;;;;;;;11.25;7.45;;;;;;;10.40;86.90;99666.91;5095993;28;20049;-89
2023/05/06 04:50:46;;;;;;;10.23;6.43;;;;;;;10.20;86.36;99624.41;5096068;28;20046;-89
2023/05/06 04:53:12;;;;;;;11.68;7.25;;;;;;;10.44;86.17;99668.47;5114456;28;20463;-89
2023/05/06 04:55:37;;;;;;;9.85;6.90;;;;;;;10.43;85.71;99659.81;5096211;28;20024;-89
2023/05/06 04:58:03;;;;;;;15.48;7.78;;;;;;;10.43;85.79;99633.78;5095849;28;20552;-89
2023/05/06 05:00:28;;;;;;;16.13;7.95;;;;;;;10.43;86.11;99620.75;5095952;28;20020;-89
2023/05/06 05:02:53;;;;;;;14.05;8.07;;;;;;;10.59;86.12;99633.91;5095695;28;20046;-89
2023/05/06 05:05:19;;;;;;;8.95;6.80;;;;;;;10.53;85.25;99622.94;5095918;28;20414;-89
2023/05/06 05:07:45;;;;;;;12.93;7.55;;;;;;;10.32;85.08;99573.53;5095967;28;20028;-89
2023/05/06 05:10:10;;;;;;;11.77;8.10;;;;;;;10.58;84.87;99624.41;5096183;28;20453;-89
2023/05/06 05:12:36;;;;;;;10.93;7.75;;;;;;;10.64;84.83;99636.31;5095815;28;20063;-89
2023/05/06 05:15:02;;;;;;;10.32;7.65;;;;;;;10.42;84.84;99607.81;5095578;28;20023;-89
2023/05/06 05:17:27;;;;;;;10.57;7.93;;;;;;;10.61;85.13;99636.44;5095491;28;20066;-89
2023/05/06 05:19:52;;;;;;;10.63;7.20;;;;;;;10.44;84.63;99599.00;5095448;28;20034;-89
2023/05/06 05:22:18;;;;;;;12.35;7.35;;;;;;;10.41;84.84;99612.19;5095607;28;20088;-89
2023/05/06 05:24:43;;;;;;;11.68;7.43;;;;;;;10.48;85.22;99625.75;5095528;28;20020;-89
2023/05/06 05:27:09;;;;;;;12.95;7.88;;;;;;;10.35;85.74;99606.41;5095167;28;20538;-89
2023/05/06 05:29:35;;;;;;;12.00;8.55;;;;;;;10.56;86.16;99644.47;5113615;28;20026;-90
2023/05/06 05:32:00;;;;;;;11.52;7.30;;;;;;;10.53;85.70;99641.16;5095026;28;20459;-89
2023/05/06 05:34:26;;;;;;;8.85;7.10;;;;;;;10.73;84.71;99678.38;5091624;28;20044;-90
2023/05/06 05:36:51;;;;;;;11.00;7.25;;;;;;;10.81;85.25;99671.97;5090256;28;20036;-89
2023/05/06 05:39:17;;;;;;;10.82;6.85;;;;;;;11.13;85.52;99701.72;5090712;28;20040;-90
2023/05/06 05:41:42;;;;;;;11.25;7.07;;;;;;;10.86;84.51;99676.03;5073663;28;20085;-89
2023/05/06 05:44:07;;;;;;;8.35;6.68;;;;;;;10.99;84.92;99721.44;5073244;28;20431;-89
2023/05/06 05:46:33;;;;;;;11.50;6.93;;;;;;;11.09;84.79;99716.66;5090630;28;20059;-90
2023/05/06 05:48:58;;;;;;;11.88;7.18;;;;;;;11.07;87.03;99691.59;5090108;28;20030;-90
2023/05/06 05:51:23;;;;;;;9.80;7.82;;;;;;;10.74;87.41;99628.00;5090200;28;20067;-90
2023/05/06 05:53:50;;;;;;;10.75;7.65;;;;;;;11.14;87.61;99691.22;5073468;28;20051;-90
2023/05/06 05:56:16;;;;;;;10.23;7.75;;;;;;;11.22;87.81;99707.34;5090392;28;20035;-90
2023/05/06 05:58:41;;;;;;;9.13;7.22;;;;;;;11.24;87.93;99694.22;5073405;28;20085;-90
2023/05/06 06:01:06;;;;;;;9.80;7.95;;;;;;;11.24;87.99;99699.44;5073007;28;20024;-90
2023/05/06 06:03:32;;;;;;;13.18;8.65;;;;;;;11.25;87.46;99695.94;5090053;28;20131;-90
2023/05/06 06:05:58;;;;;;;13.40;8.60;;;;;;;11.29;87.79;99683.56;5072864;28;20115;-90
2023/05/06 06:08:23;;;;;;;11.80;8.20;;;;;;;11.28;88.88;99700.13;5076623;28;20056;-90
2023/05/06 06:10:48;;;;;;;11.02;8.65;;;;;;;11.20;89.00;99693.50;5071003;28;20016;-90
2023/05/06 06:13:14;;;;;;;11.73;8.32;;;;;;;11.21;87.66;99683.97;5070782;28;20490;-90
2023/05/06 06:15:40;;;;;;;10.38;9.25;;;;;;;11.16;87.86;99691.13;5070945;28;20028;-90
2023/05/06 06:18:07;;;;;;;10.18;8.00;;;;;;;11.11;87.75;99680.94;5070597;28;20028;-90
2023/05/06 06:20:33;;;;;;;11.82;7.60;;;;;;;11.21;87.21;99705.66;5071097;28;20511;-90
2023/05/06 06:22:59;;;;;;;10.70;7.22;;;;;;;11.18;87.13;99697.97;5070837;28;20480;-90
2023/05/06 06:25:24;;;;;;;8.95;7.35;;;;;;;10.99;88.47;99684.13;5072212;28;20078;-89
2023/05/06 06:27:50;;;;;;;15.15;8.38;;;;;;;11.12;88.52;99698.25;5070686;28;20021;-91
2023/05/06 06:30:15;;;;;;;11.35;7.75;;;;;;;10.98;88.34;99672.84;5070737;28;20484;-90
2023/05/06 06:32:51;;;;;;;10.70;8.20;;;;;;;11.08;88.86;99690.66;5075209;28;20115;-91
2023/05/06 06:35:17;;;;;;;12.02;8.30;;;;;;;10.87;89.27;99648.22;5074193;28;20069;-91
2023/05/06 06:37:43;;;;;;;13.43;8.60;;;;;;;10.62;89.64;99625.97;5074189;28;20028;-91
2023/05/06 06:40:10;;;;;;;12.65;8.60;;;;;;;10.94;89.57;99683.50;5073922;28;20384;-90
2023/05/06 06:42:35;;;;;;;9.13;7.95;;;;;;;10.83;89.96;99673.59;5073547;28;20047;-91
2023/05/06 06:45:01;;;;;;;10.50;7.80;;;;;;;10.57;90.47;99656.56;5073404;28;20476;-90
2023/05/06 06:47:26;;;;;;;12.25;8.18;;;;;;;10.73;90.31;99694.00;5074338;28;20028;-90
2023/05/06 06:49:52;;;;;;;12.65;8.88;;;;;;;10.34;90.94;99644.63;5074056;28;20380;-90
2023/05/06 06:52:17;;;;;;;11.82;8.23;;;;;;;10.55;91.66;99683.63;5074446;28;20101;-90
2023/05/06 06:54:42;;;;;;;11.13;7.72;;;;;;;10.39;92.25;99675.66;5074135;28;20027;-90
2023/05/06 06:57:08;;;;;;;13.45;9.02;;;;;;;10.26;92.90;99646.72;5073673;28;20024;-90
2023/05/06 06:59:33;;;;;;;12.68;8.48;;;;;;;10.40;93.42;99661.72;5092129;28;20647;-90
2023/05/06 07:01:59;;;;;;;12.55;8.80;;;;;;;10.49;92.95;99696.00;5074021;28;20082;-90
2023/05/06 07:04:24;;;;;;;21.90;14.48;;;;;;;10.58;92.62;99704.31;5087637;28;20030;-89
2023/05/06 07:06:50;;;;;;;23.70;18.10;;;;;;;10.47;93.52;99704.78;5094186;28;20019;-89
2023/05/06 07:09:15;;;;;;;30.00;19.13;;;;;;;10.46;94.47;99696.13;5093776;28;20030;-89
2023/05/06 07:11:41;;;;;;;21.33;18.63;;;;;;;10.53;94.63;99701.91;5094054;28;20023;-90
2023/05/06 07:14:07;;;;;;;20.55;14.90;;;;;;;10.39;95.63;99670.44;5093540;28;20020;-89
2023/05/06 07:16:33;;;;;;;16.42;11.77;;;;;;;10.44;96.04;99663.25;5094094;28;20126;-89
2023/05/06 07:18:59;;;;;;;13.38;9.05;;;;;;;10.51;95.96;99690.72;5111637;28;20019;-89
2023/05/06 07:21:24;;;;;;;13.52;9.52;;;;;;;10.61;96.00;99697.19;5111278;28;20031;-89
2023/05/06 07:23:50;;;;;;;14.52;9.48;;;;;;;10.47;95.81;99669.19;5092794;28;20091;-89
2023/05/06 07:26:15;;;;;;;12.77;9.30;;;;;;;10.52;96.56;99675.94;5110902;28;20455;-89
2023/05/06 07:28:40;;;;;;;15.00;9.30;;;;;;;10.37;96.43;99675.72;5092733;28;20093;-89
2023/05/06 07:31:06;;;;;;;13.10;9.38;;;;;;;10.35;97.01;99653.28;5092691;28;20028;-89
2023/05/06 07:33:31;;;;;;;13.60;9.18;;;;;;;10.52;96.82;99668.13;5092701;28;20058;-88
2023/05/06 07:35:56;;;;;;;12.13;9.13;;;;;;;10.47;96.58;99666.56;5093277;28;20470;-89
2023/05/06 07:38:22;;;;;;;17.17;10.27;;;;;;;10.46;96.39;99664.06;5093768;28;20027;-89
2023/05/06 07:40:48;;;;;;;11.52;9.35;;;;;;;10.30;97.51;99663.91;5112153;28;20387;-88
2023/05/06 07:43:13;;;;;;;11.93;8.93;;;;;;;10.29;97.86;99671.78;5111751;28;20031;-88
2023/05/06 07:45:39;;;;;;;13.40;9.80;;;;;;;10.26;97.19;99631.09;5111654;28;20024;-88
2023/05/06 07:48:05;;;;;;;14.25;8.90;;;;;;;10.30;97.82;99642.22;5093548;28;20027;-89
2023/05/06 07:50:30;;;;;;;13.63;9.77;;;;;;;10.10;98.91;99627.47;5111973;28;20027;-88
2023/05/06 07:52:56;;;;;;;15.27;10.43;;;;;;;10.10;99.47;99636.13;5093384;28;20496;-89
2023/05/06 07:55:22;;;;;;;13.00;10.45;;;;;;;9.88;100.00;99614.59;5097270;28;20469;-89
2023/05/06 07:57:48;;;;;;;12.63;10.18;;;;;;;9.89;100.00;99630.13;5097125;28;20080;-89
2023/05/06 08:00:14;;;;;;;12.77;9.23;;;;;;;9.88;100.00;99635.41;5097111;28;20072;-89
2023/05/06 08:02:42;;;;;;;12.95;9.02;;;;;;;9.71;100.00;99602.31;5097295;28;20436;-90
2023/05/06 08:05:09;;;;;;;13.75;9.02;;;;;;;9.36;100.00;99580.47;5096831;28;20031;-90
2023/05/06 08:07:36;;;;;;;14.90;8.77;;;;;;;9.56;100.00;99606.41;5097103;28;20072;-90
2023/05/06 08:10:01;;;;;;;11.07;9.00;;;;;;;9.69;100.00;99624.94;5096739;28;20061;-90
2023/05/06 08:12:27;;;;;;;12.10;8.93;;;;;;;9.50;100.00;99597.13;5096882;28;20114;-91
2023/05/06 08:14:53;;;;;;;13.50;9.85;;;;;;;9.67;100.00;99606.81;5097001;28;20031;-90
2023/05/06 08:17:19;;;;;;;19.45;12.55;;;;;;;9.49;100.00;99597.22;5096710;28;20024;-90
2023/05/06 08:19:45;;;;;;;14.23;11.63;;;;;;;9.54;100.00;99623.00;5096798;28;20027;-90
2023/05/06 08:22:10;;;;;;;12.85;9.68;;;;;;;9.60;100.00;99622.72;5112603;27;20467;-90
2023/05/06 08:24:36;;;;;;;15.75;9.93;;;;;;;9.57;100.00;99612.50;5116790;27;20042;-89
2023/05/06 08:27:02;;;;;;;14.27;10.35;;;;;;;9.79;100.00;99639.25;5116578;27;20534;-90
2023/05/06 08:29:27;;;;;;;19.27;12.90;;;;;;;10.03;100.00;99654.66;5135544;27;20019;-90
2023/05/06 08:31:52;;;;;;;15.43;10.95;;;;;;;10.00;100.00;99637.47;5117050;27;20063;-90
2023/05/06 08:34:20;;;;;;;15.20;12.07;;;;;;;10.31;100.00;99665.56;5116549;27;20043;-90
2023/05/06 08:36:45;;;;;;;14.63;11.32;;;;;;;10.36;99.98;99662.75;5116834;27;20020;-90
2023/05/06 08:39:13;;;;;;;13.68;11.07;;;;;;;10.54;99.53;99668.91;5116684;27;20023;-90
2023/05/06 08:41:39;;;;;;;12.38;10.02;;;;;;;10.51;98.98;99638.63;5116697;27;20034;-89
2023/05/06 08:44:06;;;;;;;14.13;10.18;;;;;;;10.87;98.53;99675.16;5116332;27;20125;-90
2023/05/06 08:46:32;;;;;;;11.32;10.10;;;;;;;10.92;98.43;99667.97;5116889;27;20031;-90
2023/05/06 08:48:59;;;;;;;16.48;11.00;;;;;;;10.81;97.41;99630.28;5116826;27;20080;-89
2023/05/06 08:51:30;;;;;;;14.02;11.35;;;;;;;10.66;96.40;99617.09;5135191;27;20019;-90
2023/05/06 08:53:59;;;;;;;20.20;15.43;;;;;;;10.74;96.60;99621.91;5116642;27;20080;-80
2023/05/06 08:56:28;;;;;;;14.32;11.43;;;;;;;10.42;96.48;99597.41;5134847;27;20031;-83
2023/05/06 08:58:55;;;;;;;13.88;12.48;;;;;;;10.60;98.47;99647.78;5135028;27;20474;-83
2023/05/06 09:01:20;;;;;;;22.00;16.08;;;;;;;10.48;98.54;99618.78;5134563;27;20035;-83
2023/05/06 09:03:46;;;;;;;12.77;10.20;;;;;;;10.73;99.65;99639.31;5134642;27;20455;-83
2023/05/06 09:06:12;;;;;;;14.82;10.45;;;;;;;10.48;100.00;99600.56;5134306;27;20031;-83
2023/05/06 09:08:37;;;;;;;14.38;10.77;;;;;;;10.46;100.00;99618.03;5116188;27;20031;-83
2023/05/06 09:11:17;;;;;;;13.80;11.20;;;;;;;10.34;100.00;99630.75;5134528;27;20068;-84
2023/05/06 09:13:43;;;;;;;17.17;12.05;;;;;;;10.15;100.00;99618.53;5116314;27;20059;-84
2023/05/06 09:16:08;;;;;;;24.13;15.25;;;;;;;10.13;100.00;99625.59;5134521;27;20431;-84
2023/05/06 09:18:36;;;;;;;13.57;11.63;;;;;;;10.06;100.00;99620.72;5116222;27;20478;-84
2023/05/06 09:21:03;;;;;;;14.32;9.98;;;;;;;10.28;100.00;99655.31;5134135;27;20027;-84
2023/05/06 09:23:28;;;;;;;16.02;10.32;;;;;;;10.38;100.00;99655.75;5115823;27;20030;-84
2023/05/06 09:25:55;;;;;;;12.23;10.30;;;;;;;10.47;100.00;99665.72;5134266;27;20467;-84
2023/05/06 09:28:21;;;;;;;17.02;11.85;;;;;;;10.40;100.00;99646.94;5133922;27;20478;-80
2023/05/06 09:30:46;;;;;;;14.80;11.30;;;;;;;10.26;100.00;99612.03;5134047;27;20079;-84
2023/05/06 09:33:12;;;;;;;15.82;10.77;;;;;;;10.53;100.00;99652.41;5115339;27;20047;-84
2023/05/06 09:35:42;;;;;;;14.20;10.82;;;;;;;10.41;100.00;99638.22;5134273;27;20102;-84
2023/05/06 09:38:08;;;;;;;16.25;11.25;;;;;;;10.56;100.00;99661.84;5115362;27;20498;-84
2023/05/06 09:40:35;;;;;;;16.42;11.43;;;;;;;10.55;100.00;99652.38;5115678;27;20015;-84
2023/05/06 09:43:01;;;;;;;15.52;11.20;;;;;;;10.55;100.00;99644.56;5134106;27;20027;-84
2023/05/06 09:45:27;;;;;;;12.85;10.70;;;;;;;10.72;100.00;99661.06;5133781;27;20023;-84
2023/05/06 09:47:53;;;;;;;18.38;12.95;;;;;;;10.52;100.00;99614.28;5134065;27;20023;-83
2023/05/06 09:50:21;;;;;;;16.60;11.82;;;;;;;10.68;100.00;99656.91;5134005;27;20029;-85
2023/05/06 09:52:50;;;;;;;19.92;14.35;;;;;;;10.77;100.00;99663.47;5134386;27;20031;-85
2023/05/06 09:55:19;;;;;;;14.63;11.80;;;;;;;10.68;100.00;99653.47;5115418;27;20486;-85
2023/05/06 09:57:47;;;;;;;15.63;11.70;;;;;;;10.55;100.00;99629.78;5115425;27;20478;-85
2023/05/06 10:00:13;;;;;;;15.52;12.07;;;;;;;10.65;100.00;99657.06;5133975;27;20028;-85
2023/05/06 10:02:43;;;;;;;17.52;12.35;;;;;;;10.54;100.00;99661.09;5134185;27;20035;-85
2023/05/06 10:05:10;;;;;;;15.02;13.43;;;;;;;10.55;100.00;99657.56;5133483;27;20455;-85
2023/05/06 10:07:37;;;;;;;16.45;11.20;;;;;;;10.07;100.00;99568.63;5134233;27;20060;-85
2023/05/06 10:10:05;;;;;;;19.70;12.88;;;;;;;10.39;100.00;99629.63;5115208;27;20072;-85
2023/05/06 10:12:31;;;;;;;17.00;12.02;;;;;;;10.45;100.00;99646.75;5133561;27;20034;-84
2023/05/06 10:14:56;;;;;;;15.80;11.38;;;;;;;10.51;100.00;99651.66;5089787;28;20044;-84
2023/05/06 10:17:24;;;;;;;16.73;11.18;;;;;;;10.55;100.00;99658.41;5089048;28;20128;-84
2023/05/06 10:19:54;;;;;;;16.00;10.75;;;;;;;10.42;100.00;99642.50;5090230;28;20101;-85
2023/05/06 10:22:44;;;;;;;14.70;11.25;;;;;;;10.47;100.00;99647.50;5089951;28;20039;-84
2023/05/06 10:25:16;;;;;;;17.63;12.13;;;;;;;10.49;100.00;99638.72;5089585;28;20599;-85
2023/05/06 10:27:43;;;;;;;15.98;11.25;;;;;;;10.55;100.00;99649.75;5061652;28;20031;-84
2023/05/06 10:30:10;;;;;;;16.77;11.40;;;;;;;10.42;100.00;99623.44;5072613;28;20072;-83
2023/05/06 10:32:40;;;;;;;16.48;12.15;;;;;;;10.67;100.00;99662.22;5089757;28;20036;-84
2023/05/06 10:35:40;;;;;;;14.52;11.23;;;;;;;10.67;100.00;99660.44;5089490;28;20461;-84
2023/05/06 10:38:09;;;;;;;17.50;12.68;;;;;;;10.51;100.00;99623.00;5023377;28;20045;-84
2023/05/06 10:40:35;;;;;;;14.15;11.60;;;;;;;10.61;100.00;99641.66;5024834;28;20038;-85
2023/05/06 10:43:21;;;;;;;16.65;13.80;;;;;;;10.71;100.00;99662.00;5010413;28;20038;-85
2023/05/06 10:46:16;;;;;;;16.75;12.80;;;;;;;10.65;100.00;99653.63;5023335;28;20497;-85
2023/05/06 10:49:12;;;;;;;12.63;11.32;;;;;;;10.83;100.00;99664.91;4990294;28;20058;-85
2023/05/06 10:51:39;;;;;;;14.73;10.95;;;;;;;11.05;100.00;99662.16;4982943;28;20109;-89
2023/05/06 10:54:23;;;;;;;18.45;12.60;;;;;;;11.01;100.00;99647.59;5008831;28;20042;-90
2023/05/06 10:56:48;;;;;;;15.57;11.50;;;;;;;11.05;100.00;99668.22;5006230;28;20037;-88
2023/05/06 10:59:15;;;;;;;15.35;12.07;;;;;;;11.05;100.00;99664.75;5009288;28;20038;-84
2023/05/06 11:01:43;;;;;;;15.18;12.80;;;;;;;10.97;100.00;99636.47;5009571;28;20121;-84
2023/05/06 11:04:12;;;;;;;20.00;12.98;;;;;;;11.37;100.00;99661.41;5000709;28;20034;-86
2023/05/06 11:06:45;;;;;;;15.90;12.35;;;;;;;11.20;100.00;99640.53;4990005;28;20035;-86
2023/05/06 11:09:21;;;;;;;14.20;11.98;;;;;;;11.00;100.00;99599.84;4989639;28;20046;-86
2023/05/06 11:11:50;;;;;;;14.60;12.25;;;;;;;11.33;100.00;99662.47;4989690;28;20108;-86
2023/05/06 11:14:44;;;;;;;16.17;12.13;;;;;;;11.20;100.00;99645.75;4977201;28;20074;-85
2023/05/06 11:17:29;;;;;;;15.25;11.75;;;;;;;11.25;100.00;99649.00;5008745;28;20121;-86
2023/05/06 11:20:24;;;;;;;15.77;12.52;;;;;;;11.30;100.00;99661.81;5009398;28;20044;-86
2023/05/06 11:22:50;;;;;;;18.95;13.07;;;;;;;11.32;100.00;99652.97;4970460;28;20471;-86